createdAt,value
2022-09-30T00:00:30.961Z,3.97
2022-09-30T00:02:57.365Z,4.57
2022-09-30T00:05:23.775Z,4.10
2022-09-30T00:07:50.294Z,4.10
2022-09-30T00:10:17.268Z,4.38
2022-09-30T00:12:43.622Z,4.35
2022-09-30T00:15:10.999Z,4.55
2022-09-30T00:17:37.367Z,4.90
2022-09-30T00:20:04.006Z,4.40
2022-09-30T00:22:30.359Z,4.65
2022-09-30T00:24:56.759Z,4.53
2022-09-30T00:27:23.244Z,4.93
2022-09-30T00:29:49.605Z,4.80
2022-09-30T00:32:15.960Z,4.10
2022-09-30T00:34:42.343Z,4.88
2022-09-30T00:37:09.010Z,5.88
2022-09-30T00:39:37.474Z,4.88
2022-09-30T00:42:06.505Z,4.85
2022-09-30T00:44:57.058Z,5.78
2022-09-30T00:48:00.780Z,4.50
2022-09-30T00:50:33.579Z,5.00
2022-09-30T00:53:05.770Z,5.07
2022-09-30T00:55:32.048Z,5.43
2022-09-30T00:57:59.868Z,4.88
2022-09-30T01:00:26.264Z,4.60
2022-09-30T01:02:53.594Z,4.97
2022-09-30T01:05:20.221Z,4.82
2022-09-30T01:07:47.365Z,5.03
2022-09-30T01:10:13.738Z,4.80
2022-09-30T01:12:40.323Z,4.20
2022-09-30T01:15:07.260Z,3.90
2022-09-30T01:17:39.433Z,4.30
2022-09-30T01:20:40.328Z,4.78
2022-09-30T01:23:45.692Z,4.25
2022-09-30T01:26:32.037Z,4.60
2022-09-30T01:29:37.264Z,4.78
2022-09-30T01:32:24.682Z,5.32
2022-09-30T01:35:32.408Z,4.50
2022-09-30T01:38:12.881Z,4.63
2022-09-30T01:40:56.649Z,4.32
2022-09-30T01:43:38.789Z,3.83
2022-09-30T01:46:15.095Z,5.40
2022-09-30T01:48:48.962Z,4.30
2022-09-30T01:51:26.963Z,4.43
2022-09-30T01:54:07.208Z,4.38
2022-09-30T01:56:42.756Z,4.38
2022-09-30T01:59:19.289Z,4.18
2022-09-30T02:01:55.889Z,5.35
2022-09-30T02:04:27.208Z,4.97
2022-09-30T02:06:56.326Z,5.05
2022-09-30T02:09:31.822Z,5.20
2022-09-30T02:11:59.720Z,4.07
2022-09-30T02:14:30.889Z,4.65
2022-09-30T02:17:04.448Z,4.50
2022-09-30T02:19:38.016Z,4.78
2022-09-30T02:22:10.493Z,4.25
2022-09-30T02:24:37.528Z,4.43
2022-09-30T02:27:12.454Z,5.03
2022-09-30T02:29:42.173Z,4.72
2022-09-30T02:32:22.520Z,4.95
2022-09-30T02:34:52.177Z,4.55
2022-09-30T02:37:24.401Z,4.80
2022-09-30T02:39:59.409Z,4.32
2022-09-30T02:42:28.491Z,4.35
2022-09-30T02:44:59.771Z,5.05
2022-09-30T02:47:31.203Z,5.15
2022-09-30T02:50:09.824Z,4.45
2022-09-30T02:52:59.814Z,4.80
2022-09-30T02:55:55.751Z,4.88
2022-09-30T02:58:25.955Z,5.30
2022-09-30T03:00:54.456Z,4.68
2022-09-30T03:03:30.687Z,4.72
2022-09-30T03:05:57.083Z,5.00
2022-09-30T03:08:23.502Z,4.78
2022-09-30T03:10:51.232Z,5.13
2022-09-30T03:13:39.220Z,5.07
2022-09-30T03:16:26.667Z,4.80
2022-09-30T03:19:27.171Z,5.30
2022-09-30T03:22:38.283Z,4.60
2022-09-30T03:25:42.261Z,5.90
2022-09-30T03:29:01.282Z,5.18
2022-09-30T03:31:41.857Z,4.90
2022-09-30T03:34:40.518Z,5.45
2022-09-30T03:37:21.902Z,5.18
2022-09-30T03:39:53.010Z,4.72
2022-09-30T03:42:26.920Z,5.05
2022-09-30T03:44:56.320Z,5.25
2022-09-30T03:47:25.300Z,5.35
2022-09-30T03:49:54.460Z,5.05
2022-09-30T03:52:20.880Z,4.93
2022-09-30T03:54:51.682Z,4.63
2022-09-30T03:57:18.447Z,4.95
2022-09-30T03:59:44.828Z,4.88
2022-09-30T04:02:13.468Z,5.65
2022-09-30T04:04:41.512Z,5.70
2022-09-30T04:07:10.123Z,5.35
2022-09-30T04:09:39.692Z,5.72
2022-09-30T04:12:06.588Z,5.55
2022-09-30T04:14:33.694Z,4.68
2022-09-30T04:17:00.331Z,4.90
2022-09-30T04:19:26.845Z,5.13
2022-09-30T04:21:54.419Z,6.43
2022-09-30T04:24:21.782Z,4.88
2022-09-30T04:26:48.642Z,5.40
2022-09-30T04:29:15.378Z,5.22
2022-09-30T04:31:41.909Z,5.55
2022-09-30T04:34:10.225Z,5.82
2022-09-30T04:36:36.774Z,6.00
2022-09-30T04:39:03.860Z,4.95
2022-09-30T04:41:31.090Z,5.78
2022-09-30T04:43:57.468Z,5.05
2022-09-30T04:46:23.794Z,6.28
2022-09-30T04:48:50.259Z,5.80
2022-09-30T04:51:19.170Z,5.72
2022-09-30T04:53:46.260Z,6.00
2022-09-30T04:56:13.047Z,5.88
2022-09-30T04:58:39.387Z,6.00
2022-09-30T05:01:14.117Z,5.13
2022-09-30T05:03:40.708Z,5.50
2022-09-30T05:06:07.706Z,5.45
2022-09-30T05:08:34.152Z,5.45
2022-09-30T05:11:11.137Z,6.22
2022-09-30T05:13:39.664Z,5.68
2022-09-30T05:16:07.197Z,6.13
2022-09-30T05:18:36.711Z,6.07
2022-09-30T05:21:04.001Z,6.20
2022-09-30T05:23:31.338Z,6.05
2022-09-30T05:25:57.878Z,6.30
2022-09-30T05:28:24.575Z,6.63
2022-09-30T05:30:57.897Z,6.55
2022-09-30T05:33:24.307Z,6.55
2022-09-30T05:35:50.707Z,6.68
2022-09-30T05:38:17.063Z,6.38
2022-09-30T05:40:43.385Z,6.78
2022-09-30T05:43:09.776Z,6.60
2022-09-30T05:45:36.569Z,6.60
2022-09-30T05:48:02.916Z,6.45
2022-09-30T05:50:29.381Z,6.63
2022-09-30T05:52:57.381Z,7.53
2022-09-30T05:55:23.906Z,7.00
2022-09-30T05:57:51.249Z,7.22
2022-09-30T06:00:18.342Z,5.60
2022-09-30T06:02:44.955Z,7.28
2022-09-30T06:05:12.515Z,10.10
2022-09-30T06:07:39.612Z,11.15
2022-09-30T06:10:09.119Z,9.13
2022-09-30T06:12:36.189Z,8.05
2022-09-30T06:15:02.844Z,7.38
2022-09-30T06:17:29.332Z,6.60
2022-09-30T06:19:56.133Z,6.20
2022-09-30T06:22:22.497Z,6.28
2022-09-30T06:24:54.139Z,5.90
2022-09-30T06:27:21.986Z,6.38
2022-09-30T06:29:49.154Z,6.55
2022-09-30T06:32:15.461Z,6.82
2022-09-30T06:34:41.760Z,6.90
2022-09-30T06:37:08.087Z,7.25
2022-09-30T06:39:34.428Z,7.20
2022-09-30T06:42:00.741Z,6.68
2022-09-30T06:44:27.077Z,6.90
2022-09-30T06:46:54.358Z,7.47
2022-09-30T06:49:21.236Z,7.78
2022-09-30T06:51:47.628Z,7.60
2022-09-30T06:54:13.943Z,9.35
2022-09-30T06:56:40.258Z,7.65
2022-09-30T06:59:06.920Z,7.50
2022-09-30T07:01:33.272Z,8.07
2022-09-30T07:04:00.714Z,7.97
2022-09-30T07:06:27.119Z,8.52
2022-09-30T07:08:54.128Z,7.32
2022-09-30T07:11:20.558Z,8.05
2022-09-30T07:13:49.023Z,7.32
2022-09-30T07:16:17.702Z,8.32
2022-09-30T07:18:47.480Z,7.25
2022-09-30T07:21:15.817Z,8.38
2022-09-30T07:23:47.890Z,8.77
2022-09-30T07:26:19.439Z,8.75
2022-09-30T07:28:46.186Z,9.93
2022-09-30T07:31:32.579Z,9.52
2022-09-30T07:34:00.216Z,9.07
2022-09-30T07:36:32.566Z,8.63
2022-09-30T07:39:00.485Z,9.70
2022-09-30T07:41:28.952Z,9.95
2022-09-30T07:43:56.559Z,10.80
2022-09-30T07:46:29.618Z,10.23
2022-09-30T07:48:59.148Z,9.45
2022-09-30T07:51:31.312Z,9.65
2022-09-30T07:54:03.067Z,10.98
2022-09-30T07:56:41.109Z,10.48
2022-09-30T07:59:12.688Z,9.73
2022-09-30T08:01:40.564Z,10.65
2022-09-30T08:04:09.351Z,11.43
2022-09-30T08:06:46.025Z,8.98
2022-09-30T08:09:13.851Z,9.68
2022-09-30T08:11:41.247Z,9.20
2022-09-30T08:14:07.553Z,9.48
2022-09-30T08:16:34.037Z,11.45
2022-09-30T08:19:01.790Z,11.07
2022-09-30T08:21:28.770Z,10.52
2022-09-30T08:23:55.282Z,10.40
2022-09-30T08:26:21.594Z,9.70
2022-09-30T08:28:48.183Z,8.88
2022-09-30T08:31:19.872Z,10.07
2022-09-30T08:33:46.418Z,9.20
2022-09-30T08:36:19.663Z,8.68
2022-09-30T08:38:46.325Z,8.55
2022-09-30T08:41:54.098Z,8.95
2022-09-30T08:44:26.318Z,9.02
2022-09-30T08:47:09.039Z,9.43
2022-09-30T08:49:56.775Z,8.48
2022-09-30T08:52:37.419Z,8.90
2022-09-30T08:55:19.230Z,7.90
2022-09-30T09:00:16.641Z,8.40
2022-09-30T09:02:46.704Z,9.52
2022-09-30T09:05:38.962Z,8.55
2022-09-30T09:08:21.510Z,8.52
2022-09-30T09:10:55.916Z,8.02
2022-09-30T09:13:25.582Z,8.35
2022-09-30T09:16:04.777Z,8.23
2022-09-30T09:18:40.297Z,8.55
2022-09-30T09:21:26.071Z,8.23
2022-09-30T09:23:53.946Z,8.38
2022-09-30T09:26:20.277Z,8.55
2022-09-30T09:29:11.170Z,8.30
2022-09-30T09:31:38.276Z,7.72
2022-09-30T09:34:11.012Z,8.10
2022-09-30T09:36:46.127Z,9.63
2022-09-30T09:39:22.059Z,8.98
2022-09-30T09:42:24.817Z,9.13
2022-09-30T09:45:01.981Z,8.00
2022-09-30T09:47:28.367Z,8.73
2022-09-30T09:49:59.828Z,8.35
2022-09-30T09:52:44.723Z,8.48
2022-09-30T09:55:12.467Z,8.75
2022-09-30T09:57:40.093Z,8.65
2022-09-30T10:00:26.710Z,9.40
2022-09-30T10:03:00.664Z,8.40
2022-09-30T10:05:30.877Z,9.20
2022-09-30T10:08:14.507Z,7.82
2022-09-30T10:11:14.486Z,8.30
2022-09-30T10:13:44.964Z,7.30
2022-09-30T10:16:31.425Z,7.90
2022-09-30T10:18:59.107Z,7.40
2022-09-30T10:21:27.188Z,8.35
2022-09-30T10:23:53.581Z,8.55
2022-09-30T10:26:22.630Z,7.88
2022-09-30T10:28:51.450Z,7.07
2022-09-30T10:31:27.293Z,6.65
2022-09-30T10:34:23.907Z,6.28
2022-09-30T10:36:50.464Z,6.15
2022-09-30T10:39:26.680Z,6.47
2022-09-30T10:42:14.874Z,7.15
2022-09-30T10:44:46.561Z,6.35
2022-09-30T10:47:25.869Z,6.90
2022-09-30T10:49:56.455Z,6.85
2022-09-30T10:52:27.479Z,5.85
2022-09-30T10:54:58.914Z,5.95
2022-09-30T10:57:35.139Z,4.97
2022-09-30T11:00:17.431Z,5.28
2022-09-30T11:02:53.821Z,6.78
2022-09-30T11:05:27.813Z,6.15
2022-09-30T11:08:11.369Z,6.10
2022-09-30T11:10:46.279Z,5.25
2022-09-30T11:13:37.266Z,5.05
2022-09-30T11:16:15.588Z,6.10
2022-09-30T11:18:52.081Z,6.07
2022-09-30T11:21:28.387Z,6.10
2022-09-30T11:24:02.201Z,6.00
2022-09-30T11:26:48.141Z,5.97
2022-09-30T11:29:32.982Z,5.78
2022-09-30T11:32:17.274Z,5.03
2022-09-30T11:35:07.670Z,5.20
2022-09-30T11:38:05.837Z,5.50
2022-09-30T11:40:37.000Z,3.78
2022-09-30T11:43:29.432Z,3.58
2022-09-30T11:46:06.480Z,3.05
2022-09-30T11:48:47.673Z,3.38
2022-09-30T11:51:32.401Z,3.30
2022-09-30T11:54:23.792Z,3.05
2022-09-30T11:56:59.057Z,3.13
2022-09-30T11:59:33.592Z,2.78
2022-09-30T12:02:02.312Z,2.63
2022-09-30T12:04:44.043Z,3.40
2022-09-30T12:07:16.055Z,2.65
2022-09-30T12:09:51.735Z,2.60
2022-09-30T12:12:19.142Z,2.13
2022-09-30T12:14:55.227Z,2.63
2022-09-30T12:17:40.991Z,2.78
2022-09-30T12:20:26.023Z,2.50
2022-09-30T12:23:01.192Z,2.72
2022-09-30T12:25:32.332Z,2.65
2022-09-30T12:28:35.066Z,2.78
2022-09-30T12:31:12.605Z,2.80
2022-09-30T12:34:00.279Z,2.90
2022-09-30T12:37:01.934Z,2.88
2022-09-30T12:39:53.084Z,2.75
2022-09-30T12:42:35.821Z,2.40
2022-09-30T12:45:31.450Z,2.38
2022-09-30T12:47:59.232Z,2.55
2022-09-30T12:50:30.381Z,2.08
2022-09-30T12:52:57.450Z,3.35
2022-09-30T12:55:33.956Z,2.20
2022-09-30T12:58:01.629Z,2.20
2022-09-30T13:00:30.839Z,2.40
2022-09-30T13:03:03.996Z,2.63
2022-09-30T13:05:30.318Z,2.55
2022-09-30T13:08:05.557Z,2.17
2022-09-30T13:10:54.757Z,2.22
2022-09-30T13:13:33.730Z,2.25
2022-09-30T13:16:04.510Z,2.40
2022-09-30T13:18:30.739Z,2.35
2022-09-30T13:21:06.630Z,2.00
2022-09-30T13:23:40.125Z,2.40
2022-09-30T13:26:26.049Z,2.10
2022-09-30T13:28:54.222Z,1.70
2022-09-30T13:31:24.426Z,2.17
2022-09-30T13:34:02.664Z,2.00
2022-09-30T13:36:30.433Z,2.03
2022-09-30T13:39:20.233Z,2.42
2022-09-30T13:41:59.144Z,1.88
2022-09-30T13:44:44.525Z,2.13
2022-09-30T13:47:28.309Z,2.25
2022-09-30T13:50:07.483Z,1.93
2022-09-30T13:52:35.338Z,1.65
2022-09-30T13:55:07.997Z,1.67
2022-09-30T13:57:47.761Z,1.80
2022-09-30T14:00:16.492Z,1.73
2022-09-30T14:02:52.852Z,1.80
2022-09-30T14:05:48.073Z,1.70
2022-09-30T14:08:27.960Z,1.90
2022-09-30T14:11:18.430Z,1.52
2022-09-30T14:14:24.976Z,2.13
2022-09-30T14:17:23.088Z,1.90
2022-09-30T14:20:10.505Z,2.08
2022-09-30T14:22:37.137Z,2.13
2022-09-30T14:25:04.745Z,1.90
2022-09-30T14:28:12.580Z,2.33
2022-09-30T14:31:02.827Z,1.95
2022-09-30T14:33:31.419Z,1.70
2022-09-30T14:36:00.540Z,1.90
2022-09-30T14:38:29.508Z,1.70
2022-09-30T14:40:57.926Z,1.60
2022-09-30T14:43:28.850Z,1.95
2022-09-30T14:45:56.257Z,1.85
2022-09-30T14:48:29.422Z,1.73
2022-09-30T14:50:59.696Z,1.80
2022-09-30T14:53:32.211Z,1.58
2022-09-30T14:55:59.803Z,1.30
2022-09-30T14:58:42.128Z,1.60
2022-09-30T15:01:17.405Z,1.50
2022-09-30T15:03:46.115Z,1.25
2022-09-30T15:06:27.329Z,1.50
2022-09-30T15:09:06.221Z,1.50
2022-09-30T15:11:38.752Z,1.58
2022-09-30T15:14:11.198Z,1.10
2022-09-30T15:16:45.396Z,1.38
2022-09-30T15:21:38.881Z,1.30
2022-09-30T15:24:10.130Z,1.45
2022-09-30T15:26:36.634Z,1.27
2022-09-30T15:29:05.390Z,1.40
2022-09-30T15:31:32.330Z,1.33
2022-09-30T15:34:21.886Z,1.25
2022-09-30T15:37:06.784Z,1.27
2022-09-30T15:39:58.888Z,1.20
2022-09-30T15:42:37.478Z,1.38
2022-09-30T15:45:35.325Z,1.45
2022-09-30T15:48:25.700Z,1.55
2022-09-30T15:50:57.080Z,1.38
2022-09-30T15:53:47.213Z,1.67
2022-09-30T15:56:25.005Z,1.50
2022-09-30T15:59:03.845Z,1.33
2022-09-30T16:01:36.948Z,1.60
2022-09-30T16:04:14.312Z,1.40
2022-09-30T16:06:40.669Z,1.77
2022-09-30T16:09:33.732Z,1.50
2022-09-30T16:12:08.611Z,1.50
2022-09-30T16:14:43.040Z,1.45
2022-09-30T16:17:18.033Z,1.52
2022-09-30T16:19:53.905Z,1.20
2022-09-30T16:22:33.036Z,1.48
2022-09-30T16:25:01.953Z,1.45
2022-09-30T16:27:30.103Z,1.38
2022-09-30T16:29:57.141Z,1.55
2022-09-30T16:32:23.958Z,1.63
2022-09-30T16:34:50.587Z,1.58
2022-09-30T16:37:18.962Z,1.80
2022-09-30T16:39:45.274Z,1.52
2022-09-30T16:42:15.166Z,1.48
2022-09-30T16:44:44.258Z,1.60
2022-09-30T16:47:18.084Z,1.85
2022-09-30T16:49:46.240Z,2.03
2022-09-30T16:52:13.233Z,2.00
2022-09-30T16:54:40.749Z,1.45
2022-09-30T16:57:07.067Z,2.13
2022-09-30T16:59:33.531Z,1.60
2022-09-30T17:02:00.972Z,2.20
2022-09-30T17:04:27.852Z,2.25
2022-09-30T17:06:56.759Z,1.70
2022-09-30T17:09:23.284Z,2.00
2022-09-30T17:11:53.207Z,2.38
2022-09-30T17:14:19.743Z,3.47
2022-09-30T17:16:46.820Z,4.80
2022-09-30T17:19:13.521Z,2.30
2022-09-30T17:21:39.853Z,1.88
2022-09-30T17:24:06.203Z,1.70
2022-09-30T17:26:32.986Z,1.50
2022-09-30T17:29:14.713Z,1.83
2022-09-30T17:31:46.793Z,1.75
2022-09-30T17:34:13.255Z,2.22
2022-09-30T17:36:39.998Z,1.73
2022-09-30T17:39:07.536Z,1.60
2022-09-30T17:42:09.453Z,1.77
2022-09-30T17:44:35.929Z,1.67
2022-09-30T17:47:02.258Z,1.92
2022-09-30T17:49:35.937Z,2.17
2022-09-30T17:52:03.533Z,1.85
2022-09-30T17:54:29.875Z,2.22
2022-09-30T17:56:59.517Z,3.60
2022-09-30T17:59:27.081Z,3.50
2022-09-30T18:01:56.198Z,2.72
2022-09-30T18:04:23.662Z,2.53
2022-09-30T18:06:50.110Z,2.30
2022-09-30T18:09:16.434Z,2.72
2022-09-30T18:11:43.937Z,2.83
2022-09-30T18:14:11.518Z,3.70
2022-09-30T18:16:38.132Z,2.97
2022-09-30T18:19:06.107Z,2.78
2022-09-30T18:21:34.732Z,2.22
2022-09-30T18:24:01.705Z,2.22
2022-09-30T18:26:33.174Z,2.78
2022-09-30T18:29:01.552Z,4.72
2022-09-30T18:31:37.401Z,3.08
2022-09-30T18:34:04.814Z,3.80
2022-09-30T18:36:35.034Z,3.28
2022-09-30T18:39:02.391Z,4.60
2022-09-30T18:41:31.832Z,3.88
2022-09-30T18:44:02.136Z,3.35
2022-09-30T18:46:29.892Z,3.22
2022-09-30T18:48:56.285Z,3.65
2022-09-30T18:51:23.120Z,3.55
2022-09-30T18:53:56.096Z,3.67
2022-09-30T18:56:23.723Z,3.25
2022-09-30T18:58:51.490Z,3.30
2022-09-30T19:01:18.097Z,3.42
2022-09-30T19:03:44.531Z,3.33
2022-09-30T19:06:10.860Z,4.85
2022-09-30T19:08:37.197Z,4.28
2022-09-30T19:11:12.846Z,4.80
2022-09-30T19:13:39.848Z,5.50
2022-09-30T19:16:07.102Z,7.10
2022-09-30T19:18:33.825Z,22.20
2022-09-30T19:21:07.905Z,23.00
2022-09-30T19:23:34.279Z,22.70
2022-09-30T19:26:01.016Z,12.75
2022-09-30T19:28:27.527Z,7.40
2022-09-30T19:30:53.838Z,6.07
2022-09-30T19:33:27.178Z,8.15
2022-09-30T19:36:14.130Z,8.88
2022-09-30T19:38:42.411Z,18.42
2022-09-30T19:41:09.575Z,12.70
2022-09-30T19:43:36.177Z,12.50
2022-09-30T19:46:04.990Z,8.00
2022-09-30T19:48:32.916Z,8.10
2022-09-30T19:51:02.480Z,8.57
2022-09-30T19:53:40.951Z,8.73
2022-09-30T19:56:14.364Z,5.07
2022-09-30T19:58:48.972Z,5.28
2022-09-30T20:01:18.187Z,5.60
2022-09-30T20:03:44.594Z,5.90
2022-09-30T20:06:14.503Z,5.78
2022-09-30T20:08:42.678Z,5.55
2022-09-30T20:11:13.667Z,6.80
2022-09-30T20:13:40.211Z,6.88
2022-09-30T20:16:08.847Z,6.50
2022-09-30T20:18:36.099Z,5.82
2022-09-30T20:21:11.335Z,5.50
2022-09-30T20:23:38.931Z,5.53
2022-09-30T20:26:10.141Z,5.20
2022-09-30T20:28:36.894Z,5.57
2022-09-30T20:31:07.646Z,5.88
2022-09-30T20:33:36.949Z,5.57
2022-09-30T20:36:04.350Z,5.07
2022-09-30T20:38:32.105Z,4.55
2022-09-30T20:40:59.933Z,4.35
2022-09-30T20:43:29.944Z,4.68
2022-09-30T20:46:00.230Z,4.57
2022-09-30T20:48:37.434Z,3.78
2022-09-30T20:51:11.264Z,3.95
2022-09-30T20:53:39.468Z,4.63
2022-09-30T20:56:07.883Z,3.88
2022-09-30T20:58:34.686Z,4.10
2022-09-30T21:01:06.622Z,4.30
2022-09-30T21:03:37.421Z,3.85
2022-09-30T21:06:05.226Z,3.63
2022-09-30T21:08:31.583Z,3.58
2022-09-30T21:11:02.951Z,3.85
2022-09-30T21:13:30.330Z,3.97
2022-09-30T21:16:01.355Z,3.58
2022-09-30T21:18:28.036Z,3.78
2022-09-30T21:20:58.732Z,4.35
2022-09-30T21:23:26.319Z,3.65
2022-09-30T21:25:59.683Z,4.40
2022-09-30T21:28:26.680Z,3.37
2022-09-30T21:30:53.177Z,3.80
2022-09-30T21:33:20.155Z,4.40
2022-09-30T21:35:46.911Z,3.70
2022-09-30T21:38:16.677Z,3.90
2022-09-30T21:40:47.392Z,4.57
2022-09-30T21:43:13.818Z,3.90
2022-09-30T21:45:40.212Z,3.83
2022-09-30T21:48:07.366Z,4.43
2022-09-30T21:50:34.823Z,4.20
2022-09-30T21:53:01.307Z,4.93
2022-09-30T21:55:28.198Z,4.57
2022-09-30T21:57:54.551Z,4.72
2022-09-30T22:00:21.380Z,4.35
2022-09-30T22:02:48.378Z,4.60
2022-09-30T22:05:20.335Z,4.35
2022-09-30T22:07:47.802Z,4.20
2022-09-30T22:10:14.259Z,4.78
2022-09-30T22:12:40.602Z,4.47
2022-09-30T22:15:07.354Z,4.72
2022-09-30T22:17:33.685Z,4.30
2022-09-30T22:20:00.971Z,4.90
2022-09-30T22:22:27.305Z,5.00
2022-09-30T22:24:53.686Z,4.25
2022-09-30T22:27:19.989Z,4.93
2022-09-30T22:29:46.381Z,4.88
2022-09-30T22:32:13.080Z,5.40
2022-09-30T22:34:57.749Z,4.72
2022-09-30T22:37:42.628Z,4.50
2022-09-30T22:40:09.270Z,4.47
2022-09-30T22:42:35.649Z,5.00
2022-09-30T22:45:03.533Z,3.92
2022-09-30T22:47:30.896Z,4.38
2022-09-30T22:49:57.398Z,4.43
2022-09-30T22:52:23.727Z,4.97
2022-09-30T22:54:50.025Z,4.78
2022-09-30T22:57:16.390Z,4.75
2022-09-30T22:59:43.603Z,4.00
2022-09-30T23:02:10.000Z,4.55
2022-09-30T23:04:36.370Z,5.25
2022-09-30T23:07:02.769Z,4.78
2022-09-30T23:09:31.036Z,4.57
2022-09-30T23:11:57.992Z,4.60
2022-09-30T23:14:25.169Z,4.85
2022-09-30T23:16:54.770Z,4.07
2022-09-30T23:19:24.145Z,4.70
2022-09-30T23:21:50.587Z,3.97
2022-09-30T23:24:17.116Z,4.63
2022-09-30T23:26:43.686Z,4.13
2022-09-30T23:29:13.937Z,3.95
2022-09-30T23:31:40.923Z,4.82
2022-09-30T23:34:08.191Z,4.32
2022-09-30T23:36:36.540Z,4.18
2022-09-30T23:39:08.282Z,4.35
2022-09-30T23:41:35.027Z,4.65
2022-09-30T23:44:02.709Z,3.88
2022-09-30T23:46:29.423Z,4.18
2022-09-30T23:48:56.568Z,4.28
2022-09-30T23:51:23.453Z,4.40
2022-09-30T23:53:50.634Z,3.97
2022-09-30T23:56:19.039Z,3.80
2022-09-30T23:58:46.468Z,3.40
